sensor_id;sensor_type;location;lat;lon;timestamp;P1;durP1;ratioP1;P2;durP2;ratioP2
73557;SDS011;61829;53.286;10.434;2024-02-16T00:00:08;7.45;;;3.17;;
73557;SDS011;61829;53.286;10.434;2024-02-16T00:03:15;6.65;;;2.63;;
73557;SDS011;61829;53.286;10.434;2024-02-16T00:05:59;6.45;;;3.20;;
73557;SDS011;61829;53.286;10.434;2024-02-16T00:08:44;7.70;;;3.10;;
73557;SDS011;61829;53.286;10.434;2024-02-16T00:11:28;5.95;;;2.90;;
73557;SDS011;61829;53.286;10.434;2024-02-16T00:14:13;7.80;;;2.88;;
73557;SDS011;61829;53.286;10.434;2024-02-16T00:16:57;5.75;;;3.25;;
73557;SDS011;61829;53.286;10.434;2024-02-16T00:19:41;6.35;;;3.30;;
73557;SDS011;61829;53.286;10.434;2024-02-16T00:22:27;9.02;;;3.22;;
73557;SDS011;61829;53.286;10.434;2024-02-16T00:25:11;9.18;;;3.33;;
73557;SDS011;61829;53.286;10.434;2024-02-16T00:27:59;6.38;;;3.17;;
73557;SDS011;61829;53.286;10.434;2024-02-16T00:30:43;6.68;;;3.30;;
73557;SDS011;61829;53.286;10.434;2024-02-16T00:33:28;6.53;;;3.08;;
73557;SDS011;61829;53.286;10.434;2024-02-16T00:36:13;6.35;;;3.70;;
73557;SDS011;61829;53.286;10.434;2024-02-16T00:38:58;6.55;;;3.22;;
73557;SDS011;61829;53.286;10.434;2024-02-16T00:41:42;5.22;;;3.05;;
73557;SDS011;61829;53.286;10.434;2024-02-16T00:44:28;6.70;;;3.22;;
73557;SDS011;61829;53.286;10.434;2024-02-16T00:47:12;5.40;;;3.17;;
73557;SDS011;61829;53.286;10.434;2024-02-16T00:49:58;5.95;;;3.38;;
73557;SDS011;61829;53.286;10.434;2024-02-16T00:56:29;7.40;;;2.88;;
73557;SDS011;61829;53.286;10.434;2024-02-16T01:01:59;6.75;;;2.95;;
73557;SDS011;61829;53.286;10.434;2024-02-16T01:04:43;6.72;;;2.97;;
73557;SDS011;61829;53.286;10.434;2024-02-16T01:07:31;5.57;;;2.78;;
73557;SDS011;61829;53.286;10.434;2024-02-16T01:10:16;8.70;;;3.30;;
73557;SDS011;61829;53.286;10.434;2024-02-16T01:13:01;8.18;;;3.72;;
73557;SDS011;61829;53.286;10.434;2024-02-16T01:15:47;6.32;;;3.10;;
73557;SDS011;61829;53.286;10.434;2024-02-16T01:18:32;5.43;;;2.70;;
73557;SDS011;61829;53.286;10.434;2024-02-16T01:21:17;8.00;;;3.63;;
73557;SDS011;61829;53.286;10.434;2024-02-16T01:24:02;7.90;;;3.10;;
73557;SDS011;61829;53.286;10.434;2024-02-16T01:29:32;5.28;;;3.00;;
73557;SDS011;61829;53.286;10.434;2024-02-16T01:35:03;6.65;;;3.05;;
73557;SDS011;61829;53.286;10.434;2024-02-16T01:37:47;4.78;;;2.70;;
73557;SDS011;61829;53.286;10.434;2024-02-16T01:40:32;5.45;;;2.80;;
73557;SDS011;61829;53.286;10.434;2024-02-16T01:43:20;6.30;;;2.72;;
73557;SDS011;61829;53.286;10.434;2024-02-16T01:46:06;4.90;;;2.95;;
73557;SDS011;61829;53.286;10.434;2024-02-16T01:48:51;4.65;;;2.50;;
73557;SDS011;61829;53.286;10.434;2024-02-16T01:55:06;7.15;;;2.80;;
73557;SDS011;61829;53.286;10.434;2024-02-16T01:57:54;5.65;;;2.95;;
73557;SDS011;61829;53.286;10.434;2024-02-16T02:00:42;5.90;;;2.72;;
73557;SDS011;61829;53.286;10.434;2024-02-16T02:03:26;7.45;;;3.00;;
73557;SDS011;61829;53.286;10.434;2024-02-16T02:06:11;5.50;;;2.90;;
73557;SDS011;61829;53.286;10.434;2024-02-16T02:08:56;5.35;;;2.90;;
73557;SDS011;61829;53.286;10.434;2024-02-16T02:11:40;5.80;;;2.92;;
73557;SDS011;61829;53.286;10.434;2024-02-16T02:14:25;6.22;;;2.63;;
73557;SDS011;61829;53.286;10.434;2024-02-16T02:17:10;8.75;;;3.00;;
73557;SDS011;61829;53.286;10.434;2024-02-16T02:19:55;7.00;;;3.00;;
73557;SDS011;61829;53.286;10.434;2024-02-16T02:22:39;5.10;;;2.53;;
73557;SDS011;61829;53.286;10.434;2024-02-16T02:25:24;8.55;;;2.92;;
73557;SDS011;61829;53.286;10.434;2024-02-16T02:28:11;4.85;;;3.03;;
73557;SDS011;61829;53.286;10.434;2024-02-16T02:30:55;4.97;;;2.75;;
73557;SDS011;61829;53.286;10.434;2024-02-16T02:33:40;6.35;;;3.22;;
73557;SDS011;61829;53.286;10.434;2024-02-16T02:36:24;6.80;;;3.08;;
73557;SDS011;61829;53.286;10.434;2024-02-16T02:39:09;4.28;;;2.70;;
73557;SDS011;61829;53.286;10.434;2024-02-16T02:41:54;5.80;;;2.78;;
73557;SDS011;61829;53.286;10.434;2024-02-16T02:44:38;5.63;;;3.05;;
73557;SDS011;61829;53.286;10.434;2024-02-16T02:47:24;6.28;;;2.90;;
73557;SDS011;61829;53.286;10.434;2024-02-16T02:50:09;7.18;;;2.92;;
73557;SDS011;61829;53.286;10.434;2024-02-16T02:52:53;6.32;;;2.95;;
73557;SDS011;61829;53.286;10.434;2024-02-16T02:55:38;7.28;;;2.80;;
73557;SDS011;61829;53.286;10.434;2024-02-16T02:58:22;6.93;;;2.70;;
73557;SDS011;61829;53.286;10.434;2024-02-16T03:01:07;8.73;;;2.90;;
73557;SDS011;61829;53.286;10.434;2024-02-16T03:03:54;6.03;;;2.78;;
73557;SDS011;61829;53.286;10.434;2024-02-16T03:06:39;6.63;;;3.03;;
73557;SDS011;61829;53.286;10.434;2024-02-16T03:09:23;5.03;;;2.90;;
73557;SDS011;61829;53.286;10.434;2024-02-16T03:12:10;5.53;;;3.00;;
73557;SDS011;61829;53.286;10.434;2024-02-16T03:14:55;6.57;;;2.95;;
73557;SDS011;61829;53.286;10.434;2024-02-16T03:17:40;4.45;;;2.53;;
73557;SDS011;61829;53.286;10.434;2024-02-16T03:20:24;6.57;;;3.20;;
73557;SDS011;61829;53.286;10.434;2024-02-16T03:23:12;5.15;;;3.00;;
73557;SDS011;61829;53.286;10.434;2024-02-16T03:25:56;6.68;;;2.97;;
73557;SDS011;61829;53.286;10.434;2024-02-16T03:28:53;6.00;;;2.90;;
73557;SDS011;61829;53.286;10.434;2024-02-16T03:31:37;5.35;;;3.03;;
73557;SDS011;61829;53.286;10.434;2024-02-16T03:34:22;6.65;;;3.30;;
73557;SDS011;61829;53.286;10.434;2024-02-16T03:37:06;6.00;;;2.80;;
73557;SDS011;61829;53.286;10.434;2024-02-16T03:39:51;4.32;;;2.80;;
73557;SDS011;61829;53.286;10.434;2024-02-16T03:42:37;5.65;;;3.20;;
73557;SDS011;61829;53.286;10.434;2024-02-16T03:45:27;5.28;;;3.20;;
73557;SDS011;61829;53.286;10.434;2024-02-16T03:48:11;5.10;;;2.97;;
73557;SDS011;61829;53.286;10.434;2024-02-16T03:50:56;6.32;;;3.30;;
73557;SDS011;61829;53.286;10.434;2024-02-16T03:53:40;5.30;;;3.08;;
73557;SDS011;61829;53.286;10.434;2024-02-16T03:56:25;6.47;;;3.08;;
73557;SDS011;61829;53.286;10.434;2024-02-16T03:59:09;4.82;;;2.75;;
73557;SDS011;61829;53.286;10.434;2024-02-16T04:01:54;6.38;;;2.83;;
73557;SDS011;61829;53.286;10.434;2024-02-16T04:04:41;5.38;;;2.65;;
73557;SDS011;61829;53.286;10.434;2024-02-16T04:10:25;7.22;;;2.92;;
73557;SDS011;61829;53.286;10.434;2024-02-16T04:13:10;6.55;;;2.67;;
73557;SDS011;61829;53.286;10.434;2024-02-16T04:15:54;5.50;;;2.97;;
73557;SDS011;61829;53.286;10.434;2024-02-16T04:18:39;8.63;;;3.10;;
73557;SDS011;61829;53.286;10.434;2024-02-16T04:21:23;6.03;;;3.25;;
73557;SDS011;61829;53.286;10.434;2024-02-16T04:24:08;7.90;;;3.10;;
73557;SDS011;61829;53.286;10.434;2024-02-16T04:26:52;8.60;;;2.95;;
73557;SDS011;61829;53.286;10.434;2024-02-16T04:29:37;6.60;;;2.83;;
73557;SDS011;61829;53.286;10.434;2024-02-16T04:32:21;4.85;;;2.67;;
73557;SDS011;61829;53.286;10.434;2024-02-16T04:35:06;5.30;;;2.78;;
73557;SDS011;61829;53.286;10.434;2024-02-16T04:37:55;4.80;;;2.92;;
73557;SDS011;61829;53.286;10.434;2024-02-16T04:40:40;6.40;;;2.47;;
73557;SDS011;61829;53.286;10.434;2024-02-16T04:43:24;4.93;;;2.97;;
73557;SDS011;61829;53.286;10.434;2024-02-16T04:46:13;6.85;;;2.60;;
73557;SDS011;61829;53.286;10.434;2024-02-16T04:48:59;4.13;;;2.60;;
73557;SDS011;61829;53.286;10.434;2024-02-16T04:51:43;5.53;;;2.45;;
73557;SDS011;61829;53.286;10.434;2024-02-16T04:54:28;6.82;;;3.05;;
73557;SDS011;61829;53.286;10.434;2024-02-16T04:57:13;5.93;;;2.22;;
73557;SDS011;61829;53.286;10.434;2024-02-16T04:59:57;5.05;;;2.83;;
73557;SDS011;61829;53.286;10.434;2024-02-16T05:02:45;5.68;;;2.40;;
73557;SDS011;61829;53.286;10.434;2024-02-16T05:05:29;8.45;;;2.80;;
73557;SDS011;61829;53.286;10.434;2024-02-16T05:08:17;6.07;;;2.90;;
73557;SDS011;61829;53.286;10.434;2024-02-16T05:11:02;4.45;;;2.28;;
73557;SDS011;61829;53.286;10.434;2024-02-16T05:13:47;4.72;;;2.35;;
73557;SDS011;61829;53.286;10.434;2024-02-16T05:16:31;3.72;;;2.10;;
73557;SDS011;61829;53.286;10.434;2024-02-16T05:19:16;7.53;;;2.45;;
73557;SDS011;61829;53.286;10.434;2024-02-16T05:22:01;6.90;;;2.28;;
73557;SDS011;61829;53.286;10.434;2024-02-16T05:24:46;3.97;;;2.28;;
73557;SDS011;61829;53.286;10.434;2024-02-16T05:27:30;4.22;;;2.50;;
73557;SDS011;61829;53.286;10.434;2024-02-16T05:30:14;4.18;;;2.25;;
73557;SDS011;61829;53.286;10.434;2024-02-16T05:32:59;3.90;;;2.15;;
73557;SDS011;61829;53.286;10.434;2024-02-16T05:35:45;6.10;;;2.38;;
73557;SDS011;61829;53.286;10.434;2024-02-16T05:38:35;4.85;;;2.03;;
73557;SDS011;61829;53.286;10.434;2024-02-16T05:41:25;5.47;;;2.03;;
73557;SDS011;61829;53.286;10.434;2024-02-16T05:44:09;3.70;;;2.03;;
73557;SDS011;61829;53.286;10.434;2024-02-16T05:46:54;5.35;;;2.60;;
73557;SDS011;61829;53.286;10.434;2024-02-16T05:49:38;5.13;;;2.10;;
73557;SDS011;61829;53.286;10.434;2024-02-16T05:52:22;5.80;;;2.15;;
73557;SDS011;61829;53.286;10.434;2024-02-16T05:55:08;3.50;;;2.08;;
73557;SDS011;61829;53.286;10.434;2024-02-16T05:57:54;3.78;;;1.92;;
73557;SDS011;61829;53.286;10.434;2024-02-16T06:00:39;3.42;;;2.10;;
73557;SDS011;61829;53.286;10.434;2024-02-16T06:03:23;8.77;;;2.15;;
73557;SDS011;61829;53.286;10.434;2024-02-16T06:06:07;4.90;;;2.05;;
73557;SDS011;61829;53.286;10.434;2024-02-16T06:08:52;5.63;;;2.35;;
73557;SDS011;61829;53.286;10.434;2024-02-16T06:11:37;5.07;;;2.33;;
73557;SDS011;61829;53.286;10.434;2024-02-16T06:14:23;4.10;;;2.03;;
73557;SDS011;61829;53.286;10.434;2024-02-16T06:17:09;5.15;;;2.17;;
73557;SDS011;61829;53.286;10.434;2024-02-16T06:19:53;3.50;;;2.10;;
73557;SDS011;61829;53.286;10.434;2024-02-16T06:22:38;6.13;;;2.00;;
73557;SDS011;61829;53.286;10.434;2024-02-16T06:25:22;4.68;;;2.17;;
73557;SDS011;61829;53.286;10.434;2024-02-16T06:28:06;5.13;;;2.17;;
73557;SDS011;61829;53.286;10.434;2024-02-16T06:30:51;4.68;;;2.03;;
73557;SDS011;61829;53.286;10.434;2024-02-16T06:33:35;3.30;;;2.08;;
73557;SDS011;61829;53.286;10.434;2024-02-16T06:36:36;3.50;;;2.30;;
73557;SDS011;61829;53.286;10.434;2024-02-16T06:39:21;4.15;;;2.20;;
73557;SDS011;61829;53.286;10.434;2024-02-16T06:44:51;2.80;;;1.73;;
73557;SDS011;61829;53.286;10.434;2024-02-16T06:47:35;6.07;;;2.53;;
73557;SDS011;61829;53.286;10.434;2024-02-16T06:50:19;5.20;;;2.05;;
73557;SDS011;61829;53.286;10.434;2024-02-16T06:53:04;3.67;;;1.98;;
73557;SDS011;61829;53.286;10.434;2024-02-16T06:55:49;6.50;;;2.63;;
73557;SDS011;61829;53.286;10.434;2024-02-16T06:58:35;4.20;;;2.50;;
73557;SDS011;61829;53.286;10.434;2024-02-16T07:01:20;4.18;;;2.38;;
73557;SDS011;61829;53.286;10.434;2024-02-16T07:04:08;4.38;;;2.20;;
73557;SDS011;61829;53.286;10.434;2024-02-16T07:06:55;3.70;;;2.00;;
73557;SDS011;61829;53.286;10.434;2024-02-16T07:09:48;4.38;;;2.20;;
73557;SDS011;61829;53.286;10.434;2024-02-16T07:12:32;5.30;;;2.10;;
73557;SDS011;61829;53.286;10.434;2024-02-16T07:15:17;4.55;;;2.25;;
73557;SDS011;61829;53.286;10.434;2024-02-16T07:18:02;4.13;;;1.85;;
73557;SDS011;61829;53.286;10.434;2024-02-16T07:20:48;3.20;;;1.90;;
73557;SDS011;61829;53.286;10.434;2024-02-16T07:23:32;3.92;;;2.00;;
73557;SDS011;61829;53.286;10.434;2024-02-16T07:26:17;3.58;;;2.17;;
73557;SDS011;61829;53.286;10.434;2024-02-16T07:29:01;6.50;;;1.83;;
73557;SDS011;61829;53.286;10.434;2024-02-16T07:31:46;7.32;;;2.47;;
73557;SDS011;61829;53.286;10.434;2024-02-16T07:34:31;7.95;;;2.58;;
73557;SDS011;61829;53.286;10.434;2024-02-16T07:37:15;3.08;;;1.83;;
73557;SDS011;61829;53.286;10.434;2024-02-16T07:40:00;5.32;;;1.80;;
73557;SDS011;61829;53.286;10.434;2024-02-16T07:42:44;3.45;;;1.80;;
73557;SDS011;61829;53.286;10.434;2024-02-16T07:45:29;6.03;;;2.10;;
73557;SDS011;61829;53.286;10.434;2024-02-16T07:48:14;6.82;;;2.00;;
73557;SDS011;61829;53.286;10.434;2024-02-16T07:50:58;5.13;;;1.95;;
73557;SDS011;61829;53.286;10.434;2024-02-16T07:53:46;3.35;;;1.85;;
73557;SDS011;61829;53.286;10.434;2024-02-16T07:56:31;5.80;;;2.30;;
73557;SDS011;61829;53.286;10.434;2024-02-16T07:59:16;4.75;;;2.08;;
73557;SDS011;61829;53.286;10.434;2024-02-16T08:02:03;4.07;;;1.80;;
73557;SDS011;61829;53.286;10.434;2024-02-16T08:04:48;4.00;;;1.73;;
73557;SDS011;61829;53.286;10.434;2024-02-16T08:07:33;3.70;;;1.80;;
73557;SDS011;61829;53.286;10.434;2024-02-16T08:10:21;3.15;;;1.60;;
73557;SDS011;61829;53.286;10.434;2024-02-16T08:13:06;4.68;;;1.67;;
73557;SDS011;61829;53.286;10.434;2024-02-16T08:15:52;3.90;;;1.73;;
73557;SDS011;61829;53.286;10.434;2024-02-16T08:18:37;5.45;;;1.77;;
73557;SDS011;61829;53.286;10.434;2024-02-16T08:21:22;3.03;;;1.58;;
73557;SDS011;61829;53.286;10.434;2024-02-16T08:24:06;4.82;;;1.70;;
73557;SDS011;61829;53.286;10.434;2024-02-16T08:26:51;5.00;;;1.60;;
73557;SDS011;61829;53.286;10.434;2024-02-16T08:29:36;5.53;;;1.80;;
73557;SDS011;61829;53.286;10.434;2024-02-16T08:32:21;4.20;;;1.83;;
73557;SDS011;61829;53.286;10.434;2024-02-16T08:35:05;5.90;;;1.95;;
73557;SDS011;61829;53.286;10.434;2024-02-16T08:37:51;3.13;;;1.40;;
73557;SDS011;61829;53.286;10.434;2024-02-16T08:40:48;3.67;;;1.45;;
73557;SDS011;61829;53.286;10.434;2024-02-16T08:43:36;4.25;;;1.65;;
73557;SDS011;61829;53.286;10.434;2024-02-16T08:46:21;6.03;;;1.70;;
73557;SDS011;61829;53.286;10.434;2024-02-16T08:49:05;4.65;;;1.75;;
73557;SDS011;61829;53.286;10.434;2024-02-16T08:51:50;3.15;;;1.55;;
73557;SDS011;61829;53.286;10.434;2024-02-16T08:54:34;4.65;;;1.70;;
73557;SDS011;61829;53.286;10.434;2024-02-16T08:57:20;4.90;;;1.90;;
73557;SDS011;61829;53.286;10.434;2024-02-16T09:00:04;4.45;;;1.85;;
73557;SDS011;61829;53.286;10.434;2024-02-16T09:02:49;3.05;;;1.50;;
73557;SDS011;61829;53.286;10.434;2024-02-16T09:05:34;2.78;;;1.40;;
73557;SDS011;61829;53.286;10.434;2024-02-16T09:08:27;2.55;;;1.48;;
73557;SDS011;61829;53.286;10.434;2024-02-16T09:11:17;5.55;;;1.50;;
73557;SDS011;61829;53.286;10.434;2024-02-16T09:14:02;3.60;;;1.60;;
73557;SDS011;61829;53.286;10.434;2024-02-16T09:16:51;3.65;;;1.30;;
73557;SDS011;61829;53.286;10.434;2024-02-16T09:19:36;4.00;;;1.60;;
73557;SDS011;61829;53.286;10.434;2024-02-16T09:22:21;3.75;;;1.60;;
73557;SDS011;61829;53.286;10.434;2024-02-16T09:28:15;3.70;;;1.42;;
73557;SDS011;61829;53.286;10.434;2024-02-16T09:31:00;3.67;;;1.63;;
73557;SDS011;61829;53.286;10.434;2024-02-16T09:33:44;3.03;;;1.67;;
73557;SDS011;61829;53.286;10.434;2024-02-16T09:36:28;3.53;;;1.52;;
73557;SDS011;61829;53.286;10.434;2024-02-16T09:39:13;2.38;;;1.30;;
73557;SDS011;61829;53.286;10.434;2024-02-16T09:41:57;2.88;;;1.50;;
73557;SDS011;61829;53.286;10.434;2024-02-16T09:44:42;3.22;;;1.52;;
73557;SDS011;61829;53.286;10.434;2024-02-16T09:47:28;2.78;;;1.50;;
73557;SDS011;61829;53.286;10.434;2024-02-16T09:50:17;7.43;;;2.03;;
73557;SDS011;61829;53.286;10.434;2024-02-16T09:53:02;4.95;;;1.65;;
73557;SDS011;61829;53.286;10.434;2024-02-16T09:55:49;4.78;;;1.60;;
73557;SDS011;61829;53.286;10.434;2024-02-16T09:58:34;4.13;;;1.50;;
73557;SDS011;61829;53.286;10.434;2024-02-16T10:01:19;3.80;;;1.48;;
73557;SDS011;61829;53.286;10.434;2024-02-16T10:04:06;3.22;;;1.25;;
73557;SDS011;61829;53.286;10.434;2024-02-16T10:06:54;2.80;;;1.58;;
73557;SDS011;61829;53.286;10.434;2024-02-16T10:09:39;6.13;;;1.83;;
73557;SDS011;61829;53.286;10.434;2024-02-16T10:12:24;3.35;;;1.50;;
73557;SDS011;61829;53.286;10.434;2024-02-16T10:15:09;2.30;;;1.33;;
73557;SDS011;61829;53.286;10.434;2024-02-16T10:18:06;3.55;;;1.35;;
73557;SDS011;61829;53.286;10.434;2024-02-16T10:20:52;3.00;;;1.30;;
73557;SDS011;61829;53.286;10.434;2024-02-16T10:23:37;3.38;;;1.40;;
73557;SDS011;61829;53.286;10.434;2024-02-16T10:26:27;5.60;;;1.50;;
73557;SDS011;61829;53.286;10.434;2024-02-16T10:29:14;3.80;;;1.70;;
73557;SDS011;61829;53.286;10.434;2024-02-16T10:32:05;3.58;;;1.45;;
73557;SDS011;61829;53.286;10.434;2024-02-16T10:34:51;4.25;;;1.40;;
73557;SDS011;61829;53.286;10.434;2024-02-16T10:37:37;3.78;;;1.30;;
73557;SDS011;61829;53.286;10.434;2024-02-16T10:40:25;2.60;;;1.33;;
73557;SDS011;61829;53.286;10.434;2024-02-16T10:43:11;2.22;;;1.40;;
73557;SDS011;61829;53.286;10.434;2024-02-16T10:45:59;5.00;;;1.38;;
73557;SDS011;61829;53.286;10.434;2024-02-16T10:48:44;2.45;;;1.25;;
73557;SDS011;61829;53.286;10.434;2024-02-16T10:54:27;3.20;;;1.30;;
73557;SDS011;61829;53.286;10.434;2024-02-16T10:57:15;4.88;;;1.58;;
73557;SDS011;61829;53.286;10.434;2024-02-16T11:00:01;4.50;;;1.45;;
73557;SDS011;61829;53.286;10.434;2024-02-16T11:02:57;2.22;;;1.10;;
73557;SDS011;61829;53.286;10.434;2024-02-16T11:05:45;3.67;;;1.45;;
73557;SDS011;61829;53.286;10.434;2024-02-16T11:08:30;3.33;;;1.38;;
73557;SDS011;61829;53.286;10.434;2024-02-16T11:11:22;4.20;;;1.70;;
73557;SDS011;61829;53.286;10.434;2024-02-16T11:14:15;3.80;;;1.60;;
73557;SDS011;61829;53.286;10.434;2024-02-16T11:17:00;3.53;;;1.65;;
73557;SDS011;61829;53.286;10.434;2024-02-16T11:19:47;4.85;;;1.90;;
73557;SDS011;61829;53.286;10.434;2024-02-16T11:22:32;3.42;;;1.60;;
73557;SDS011;61829;53.286;10.434;2024-02-16T11:25:32;3.15;;;1.38;;
73557;SDS011;61829;53.286;10.434;2024-02-16T11:28:16;3.40;;;1.60;;
73557;SDS011;61829;53.286;10.434;2024-02-16T11:31:03;4.68;;;1.90;;
73557;SDS011;61829;53.286;10.434;2024-02-16T11:33:48;3.58;;;1.50;;
73557;SDS011;61829;53.286;10.434;2024-02-16T11:36:33;3.97;;;1.77;;
73557;SDS011;61829;53.286;10.434;2024-02-16T11:39:19;4.03;;;1.58;;
73557;SDS011;61829;53.286;10.434;2024-02-16T11:42:06;3.70;;;1.73;;
73557;SDS011;61829;53.286;10.434;2024-02-16T11:44:54;4.13;;;1.70;;
73557;SDS011;61829;53.286;10.434;2024-02-16T11:47:40;3.78;;;1.60;;
73557;SDS011;61829;53.286;10.434;2024-02-16T11:50:24;5.03;;;1.65;;
73557;SDS011;61829;53.286;10.434;2024-02-16T11:53:14;4.20;;;1.60;;
73557;SDS011;61829;53.286;10.434;2024-02-16T11:56:00;3.72;;;1.55;;
73557;SDS011;61829;53.286;10.434;2024-02-16T12:02:27;3.40;;;1.60;;
73557;SDS011;61829;53.286;10.434;2024-02-16T12:05:15;4.53;;;1.60;;
73557;SDS011;61829;53.286;10.434;2024-02-16T12:07:59;8.30;;;1.90;;
73557;SDS011;61829;53.286;10.434;2024-02-16T12:10:44;3.63;;;1.60;;
73557;SDS011;61829;53.286;10.434;2024-02-16T12:13:31;3.80;;;1.58;;
73557;SDS011;61829;53.286;10.434;2024-02-16T12:16:18;5.45;;;1.52;;
73557;SDS011;61829;53.286;10.434;2024-02-16T12:19:06;3.40;;;1.70;;
73557;SDS011;61829;53.286;10.434;2024-02-16T12:21:52;4.35;;;1.80;;
73557;SDS011;61829;53.286;10.434;2024-02-16T12:24:37;3.63;;;1.50;;
73557;SDS011;61829;53.286;10.434;2024-02-16T12:27:21;4.05;;;1.70;;
73557;SDS011;61829;53.286;10.434;2024-02-16T12:30:06;4.53;;;1.70;;
73557;SDS011;61829;53.286;10.434;2024-02-16T12:32:51;4.80;;;1.75;;
73557;SDS011;61829;53.286;10.434;2024-02-16T12:35:37;3.45;;;1.42;;
73557;SDS011;61829;53.286;10.434;2024-02-16T12:38:21;4.10;;;1.92;;
73557;SDS011;61829;53.286;10.434;2024-02-16T12:41:06;3.28;;;1.60;;
73557;SDS011;61829;53.286;10.434;2024-02-16T12:43:51;4.45;;;1.88;;
73557;SDS011;61829;53.286;10.434;2024-02-16T12:46:35;3.88;;;1.80;;
73557;SDS011;61829;53.286;10.434;2024-02-16T12:49:19;3.92;;;1.63;;
73557;SDS011;61829;53.286;10.434;2024-02-16T12:52:06;2.97;;;1.83;;
73557;SDS011;61829;53.286;10.434;2024-02-16T12:54:52;4.05;;;1.80;;
73557;SDS011;61829;53.286;10.434;2024-02-16T12:57:37;5.03;;;1.80;;
73557;SDS011;61829;53.286;10.434;2024-02-16T13:00:24;3.78;;;1.75;;
73557;SDS011;61829;53.286;10.434;2024-02-16T13:03:09;8.30;;;1.77;;
73557;SDS011;61829;53.286;10.434;2024-02-16T13:05:54;5.10;;;1.77;;
73557;SDS011;61829;53.286;10.434;2024-02-16T13:08:38;3.90;;;1.65;;
73557;SDS011;61829;53.286;10.434;2024-02-16T13:11:22;8.15;;;2.28;;
73557;SDS011;61829;53.286;10.434;2024-02-16T13:14:07;6.45;;;1.85;;
73557;SDS011;61829;53.286;10.434;2024-02-16T13:16:51;4.13;;;1.90;;
73557;SDS011;61829;53.286;10.434;2024-02-16T13:19:36;5.15;;;1.80;;
73557;SDS011;61829;53.286;10.434;2024-02-16T13:22:20;3.95;;;2.00;;
73557;SDS011;61829;53.286;10.434;2024-02-16T13:25:05;4.60;;;2.10;;
73557;SDS011;61829;53.286;10.434;2024-02-16T13:27:52;2.88;;;1.70;;
73557;SDS011;61829;53.286;10.434;2024-02-16T13:30:36;5.50;;;1.90;;
73557;SDS011;61829;53.286;10.434;2024-02-16T13:33:21;5.68;;;2.08;;
73557;SDS011;61829;53.286;10.434;2024-02-16T13:36:06;5.25;;;2.10;;
73557;SDS011;61829;53.286;10.434;2024-02-16T13:38:50;5.43;;;2.15;;
73557;SDS011;61829;53.286;10.434;2024-02-16T13:41:38;6.20;;;2.17;;
73557;SDS011;61829;53.286;10.434;2024-02-16T13:47:08;4.18;;;1.95;;
73557;SDS011;61829;53.286;10.434;2024-02-16T13:49:54;5.95;;;2.20;;
73557;SDS011;61829;53.286;10.434;2024-02-16T13:52:41;4.65;;;2.30;;
73557;SDS011;61829;53.286;10.434;2024-02-16T13:55:25;7.93;;;2.25;;
73557;SDS011;61829;53.286;10.434;2024-02-16T13:58:11;5.35;;;2.22;;
73557;SDS011;61829;53.286;10.434;2024-02-16T14:00:56;5.32;;;2.30;;
73557;SDS011;61829;53.286;10.434;2024-02-16T14:03:43;5.45;;;2.53;;
73557;SDS011;61829;53.286;10.434;2024-02-16T14:06:28;3.92;;;2.05;;
73557;SDS011;61829;53.286;10.434;2024-02-16T14:11:58;6.70;;;2.85;;
73557;SDS011;61829;53.286;10.434;2024-02-16T14:17:47;5.53;;;2.22;;
73557;SDS011;61829;53.286;10.434;2024-02-16T14:20:32;6.55;;;2.33;;
73557;SDS011;61829;53.286;10.434;2024-02-16T14:23:16;4.05;;;2.35;;
73557;SDS011;61829;53.286;10.434;2024-02-16T14:26:00;5.30;;;2.50;;
73557;SDS011;61829;53.286;10.434;2024-02-16T14:28:45;5.97;;;2.53;;
73557;SDS011;61829;53.286;10.434;2024-02-16T14:31:30;5.60;;;2.50;;
73557;SDS011;61829;53.286;10.434;2024-02-16T14:34:14;6.05;;;2.67;;
73557;SDS011;61829;53.286;10.434;2024-02-16T14:36:59;5.32;;;2.47;;
73557;SDS011;61829;53.286;10.434;2024-02-16T14:39:43;10.05;;;3.03;;
73557;SDS011;61829;53.286;10.434;2024-02-16T14:42:28;6.88;;;2.72;;
73557;SDS011;61829;53.286;10.434;2024-02-16T14:45:13;8.63;;;2.65;;
73557;SDS011;61829;53.286;10.434;2024-02-16T14:48:04;9.95;;;2.83;;
73557;SDS011;61829;53.286;10.434;2024-02-16T14:50:49;6.22;;;2.92;;
73557;SDS011;61829;53.286;10.434;2024-02-16T14:53:34;5.95;;;2.58;;
73557;SDS011;61829;53.286;10.434;2024-02-16T14:56:18;9.23;;;2.92;;
73557;SDS011;61829;53.286;10.434;2024-02-16T14:59:05;5.07;;;2.95;;
73557;SDS011;61829;53.286;10.434;2024-02-16T15:01:50;4.20;;;2.40;;
73557;SDS011;61829;53.286;10.434;2024-02-16T15:04:36;6.65;;;2.97;;
73557;SDS011;61829;53.286;10.434;2024-02-16T15:10:06;7.20;;;3.08;;
73557;SDS011;61829;53.286;10.434;2024-02-16T15:12:51;7.20;;;2.97;;
73557;SDS011;61829;53.286;10.434;2024-02-16T15:15:36;5.85;;;2.85;;
73557;SDS011;61829;53.286;10.434;2024-02-16T15:21:20;5.60;;;3.20;;
73557;SDS011;61829;53.286;10.434;2024-02-16T15:24:06;6.75;;;2.80;;
73557;SDS011;61829;53.286;10.434;2024-02-16T15:26:51;6.82;;;3.00;;
73557;SDS011;61829;53.286;10.434;2024-02-16T15:29:35;5.20;;;2.85;;
73557;SDS011;61829;53.286;10.434;2024-02-16T15:32:20;6.85;;;3.38;;
73557;SDS011;61829;53.286;10.434;2024-02-16T15:35:04;7.63;;;3.58;;
73557;SDS011;61829;53.286;10.434;2024-02-16T15:37:49;7.55;;;3.65;;
73557;SDS011;61829;53.286;10.434;2024-02-16T15:40:34;8.82;;;3.38;;
73557;SDS011;61829;53.286;10.434;2024-02-16T15:47:24;6.13;;;3.58;;
73557;SDS011;61829;53.286;10.434;2024-02-16T15:50:09;7.47;;;3.10;;
73557;SDS011;61829;53.286;10.434;2024-02-16T15:55:39;7.15;;;3.13;;
73557;SDS011;61829;53.286;10.434;2024-02-16T15:58:30;8.63;;;4.15;;
73557;SDS011;61829;53.286;10.434;2024-02-16T16:01:16;6.85;;;3.38;;
73557;SDS011;61829;53.286;10.434;2024-02-16T16:07:48;7.88;;;3.60;;
73557;SDS011;61829;53.286;10.434;2024-02-16T16:10:41;7.40;;;3.30;;
73557;SDS011;61829;53.286;10.434;2024-02-16T16:13:26;5.93;;;3.53;;
73557;SDS011;61829;53.286;10.434;2024-02-16T16:16:10;5.95;;;3.50;;
73557;SDS011;61829;53.286;10.434;2024-02-16T16:18:55;7.55;;;3.75;;
73557;SDS011;61829;53.286;10.434;2024-02-16T16:21:39;12.38;;;4.80;;
73557;SDS011;61829;53.286;10.434;2024-02-16T16:24:24;7.05;;;3.72;;
73557;SDS011;61829;53.286;10.434;2024-02-16T16:27:08;6.72;;;3.53;;
73557;SDS011;61829;53.286;10.434;2024-02-16T16:32:38;6.90;;;3.47;;
73557;SDS011;61829;53.286;10.434;2024-02-16T16:35:24;7.88;;;3.88;;
73557;SDS011;61829;53.286;10.434;2024-02-16T16:38:09;5.80;;;3.22;;
73557;SDS011;61829;53.286;10.434;2024-02-16T16:40:54;7.05;;;3.72;;
73557;SDS011;61829;53.286;10.434;2024-02-16T16:43:38;5.03;;;3.30;;
73557;SDS011;61829;53.286;10.434;2024-02-16T16:46:23;4.93;;;3.50;;
73557;SDS011;61829;53.286;10.434;2024-02-16T16:49:07;9.07;;;3.90;;
73557;SDS011;61829;53.286;10.434;2024-02-16T16:51:52;6.72;;;3.97;;
73557;SDS011;61829;53.286;10.434;2024-02-16T16:54:37;6.60;;;4.30;;
73557;SDS011;61829;53.286;10.434;2024-02-16T16:57:21;6.60;;;4.00;;
73557;SDS011;61829;53.286;10.434;2024-02-16T17:00:06;7.53;;;4.13;;
73557;SDS011;61829;53.286;10.434;2024-02-16T17:02:51;8.18;;;4.13;;
73557;SDS011;61829;53.286;10.434;2024-02-16T17:09:37;6.80;;;4.40;;
73557;SDS011;61829;53.286;10.434;2024-02-16T17:12:22;6.65;;;4.55;;
73557;SDS011;61829;53.286;10.434;2024-02-16T17:17:52;7.43;;;4.70;;
73557;SDS011;61829;53.286;10.434;2024-02-16T17:20:36;7.32;;;4.78;;
73557;SDS011;61829;53.286;10.434;2024-02-16T17:23:24;6.45;;;4.53;;
73557;SDS011;61829;53.286;10.434;2024-02-16T17:26:09;5.97;;;4.00;;